Terminal Aerodrome Forecast
Issued by NWS Louisville, KY

Home | Current Version | Previous Version | Text Only | Print | Product List | Glossary On
Versions: 1 2 3 4 5 6 7 8 9 10 11 12 13 14 15 16 17
000
FTUS43 KLMK 202320
TAFLEX
TAF
KLEX 202320Z 2100/2124 24004KT P6SM BKN035
     FM210600 00000KT 5SM BR FEW200
     FM210900 00000KT 1SM BR SCT200
      TEMPO 2110/2112 1/2SM FG
     FM211300 VRB03KT P6SM FEW035 SCT200=

USA.gov is the U.S. government's official web portal to all federal, state and local government web resources and services.